Time;durP1;ratioP1;P1;durP2;ratioP2;P2;SDS_P1;SDS_P2;PMS_P1;PMS_P2;Temp;Humidity;BMP_temperature;BMP_pressure;BME280_temperature;BME280_humidity;BME280_pressure;Samples;Min_cycle;Max_cycle;Signal;HPM_P1;HPM_P2
2023/04/09 00:01:06;;;;;;;8.38;2.63;;;;;;;;;;4939573;28;20141;-76
2023/04/09 00:03:34;;;;;;;6.88;2.30;;;;;;;;;;4958732;28;20026;-76
2023/04/09 00:06:02;;;;;;;9.98;2.30;;;;;;;;;;4942062;28;20035;-76
2023/04/09 00:08:29;;;;;;;5.65;1.45;;;;;;;;;;4953614;28;20034;-76
2023/04/09 00:10:57;;;;;;;4.95;1.50;;;;;;;;;;4959671;28;20026;-76
2023/04/09 00:13:24;;;;;;;6.82;1.80;;;;;;;;;;4961086;28;20030;-76
2023/04/09 00:15:51;;;;;;;5.93;1.75;;;;;;;;;;4958040;28;20039;-75
2023/04/09 00:18:18;;;;;;;7.05;1.73;;;;;;;;;;4954951;28;20038;-76
2023/04/09 00:20:46;;;;;;;6.22;1.60;;;;;;;;;;4958083;28;20057;-75
2023/04/09 00:23:13;;;;;;;6.90;1.63;;;;;;;;;;4941171;28;20210;-75
2023/04/09 00:25:40;;;;;;;7.22;1.75;;;;;;;;;;4946702;28;20061;-75
2023/04/09 00:30:42;;;;;;;7.57;2.30;;;;;;;;;;5513076;23;20055;-72
2023/04/09 00:33:09;;;;;;;7.22;2.17;;;;;;;;;;4960348;28;20042;-72
2023/04/09 00:35:35;;;;;;;7.45;1.90;;;;;;;;;;4964067;28;20038;-73
2023/04/09 00:38:01;;;;;;;7.97;2.10;;;;;;;;;;4963249;28;20106;-72
2023/04/09 00:40:27;;;;;;;6.43;1.90;;;;;;;;;;4966217;28;20105;-73
2023/04/09 00:42:53;;;;;;;;;;;;;;;;;;4961404;28;20080;-72
2023/04/09 00:45:20;;;;;;;6.72;1.80;;;;;;;;;;4953856;28;20439;-72
2023/04/09 00:47:46;;;;;;;6.28;2.00;;;;;;;;;;4926552;28;20026;-73
2023/04/09 00:50:12;;;;;;;6.63;1.95;;;;;;;;;;4923546;28;20058;-72
2023/04/09 00:52:38;;;;;;;5.60;1.77;;;;;;;;;;4930296;28;20030;-72
2023/04/09 00:55:04;;;;;;;;;;;;;;;;;;4943471;28;20065;-72
2023/04/09 00:57:31;;;;;;;5.43;1.60;;;;;;;;;;4944625;28;20349;-73
2023/04/09 00:59:57;;;;;;;;;;;;;;;;;;4936157;28;20061;-72
2023/04/09 01:02:23;;;;;;;5.22;1.50;;;;;;;;;;4941392;28;20356;-72
2023/04/09 01:04:50;;;;;;;3.38;1.13;;;;;;;;;;4946233;28;20447;-72
2023/04/09 01:07:21;;;;;;;4.40;1.17;;;;;;;;;;4941901;28;20133;-72
2023/04/09 01:09:51;;;;;;;4.32;1.20;;;;;;;;;;4942664;28;20048;-72
2023/04/09 01:12:20;;;;;;;5.60;1.58;;;;;;;;;;4942254;28;20038;-72
2023/04/09 01:14:56;;;;;;;6.90;1.70;;;;;;;;;;4943093;28;20391;-73
2023/04/09 01:17:42;;;;;;;5.32;1.50;;;;;;;;;;4925494;28;20470;-72
2023/04/09 01:20:10;;;;;;;5.20;1.60;;;;;;;;;;4912448;28;20955;-73
2023/04/09 01:22:40;;;;;;;6.72;1.30;;;;;;;;;;4929659;28;20039;-74
2023/04/09 01:25:19;;;;;;;6.00;1.40;;;;;;;;;;4939372;28;20038;-72
2023/04/09 01:28:04;;;;;;;5.35;1.50;;;;;;;;;;4946071;28;20027;-73
2023/04/09 01:30:30;;;;;;;5.55;1.38;;;;;;;;;;4944124;28;20243;-72
2023/04/09 01:32:57;;;;;;;5.70;1.70;;;;;;;;;;4940345;28;20042;-71
2023/04/09 01:35:25;;;;;;;5.72;1.45;;;;;;;;;;4941650;28;20058;-72
2023/04/09 01:37:51;;;;;;;6.30;1.40;;;;;;;;;;4940419;28;20063;-71
2023/04/09 01:40:18;;;;;;;5.70;1.48;;;;;;;;;;4945568;28;20026;-71
2023/04/09 01:42:45;;;;;;;6.95;2.00;;;;;;;;;;4941319;28;20536;-71
2023/04/09 01:45:12;;;;;;;7.97;2.53;;;;;;;;;;4928234;28;20084;-72
2023/04/09 01:47:38;;;;;;;9.52;2.92;;;;;;;;;;4942426;28;20181;-72
2023/04/09 01:50:05;;;;;;;7.40;2.10;;;;;;;;;;4942207;28;20026;-72
2023/04/09 01:52:31;;;;;;;7.95;1.90;;;;;;;;;;4929188;28;20042;-72
2023/04/09 01:54:58;;;;;;;5.75;1.67;;;;;;;;;;4926588;28;20607;-71
2023/04/09 01:57:24;;;;;;;5.90;1.30;;;;;;;;;;4945804;28;20547;-72
2023/04/09 01:59:50;;;;;;;4.07;1.08;;;;;;;;;;4927084;28;20098;-72
2023/04/09 02:02:18;;;;;;;4.85;1.20;;;;;;;;;;4946685;28;20134;-72
2023/04/09 02:04:47;;;;;;;6.18;1.27;;;;;;;;;;4944949;28;20031;-72
2023/04/09 02:07:33;;;;;;;4.45;1.10;;;;;;;;;;4941988;28;20043;-72
2023/04/09 02:10:00;;;;;;;5.95;1.30;;;;;;;;;;4940889;28;20046;-71
2023/04/09 02:12:26;;;;;;;6.80;1.50;;;;;;;;;;4946949;28;20511;-71
2023/04/09 02:14:53;;;;;;;5.95;1.50;;;;;;;;;;4936956;28;20030;-71
2023/04/09 02:17:19;;;;;;;5.53;1.23;;;;;;;;;;4946793;28;20053;-73
2023/04/09 02:19:47;;;;;;;5.38;1.48;;;;;;;;;;4926706;28;20030;-71
2023/04/09 02:22:13;;;;;;;4.53;1.38;;;;;;;;;;4941553;28;20134;-73
2023/04/09 02:24:40;;;;;;;7.45;1.60;;;;;;;;;;4942310;28;20039;-73
2023/04/09 02:27:06;;;;;;;6.45;1.45;;;;;;;;;;4928529;28;20284;-73
2023/04/09 02:29:33;;;;;;;6.47;1.30;;;;;;;;;;4944246;28;20034;-71
2023/04/09 02:31:59;;;;;;;5.25;1.35;;;;;;;;;;4924444;28;20485;-71
2023/04/09 02:34:25;;;;;;;6.28;1.25;;;;;;;;;;4927887;28;20266;-72
2023/04/09 02:36:52;;;;;;;5.18;1.08;;;;;;;;;;4927280;28;20063;-71
2023/04/09 02:39:18;;;;;;;;;;;;;;;;;;4928373;28;20038;-72
2023/04/09 02:41:44;;;;;;;8.35;1.75;;;;;;;;;;4934110;28;19914;-72
2023/04/09 02:44:10;;;;;;;;;;;;;;;;;;4924339;28;23277;-72
2023/04/09 02:46:36;;;;;;;6.40;1.80;;;;;;;;;;4925740;28;19920;-72
2023/04/09 02:49:02;;;;;;;7.50;1.60;;;;;;;;;;4927247;28;20038;-72
2023/04/09 02:51:28;;;;;;;6.90;1.55;;;;;;;;;;4931172;28;20454;-72
2023/04/09 02:53:54;;;;;;;5.30;1.40;;;;;;;;;;4927183;28;20118;-72
2023/04/09 02:56:20;;;;;;;7.32;1.77;;;;;;;;;;4931422;28;20049;-72
2023/04/09 02:58:48;;;;;;;4.35;1.30;;;;;;;;;;4933733;28;20026;-72
2023/04/09 03:01:14;;;;;;;5.97;1.23;;;;;;;;;;4928569;28;20067;-72
2023/04/09 03:03:41;;;;;;;4.22;1.20;;;;;;;;;;4935154;28;20039;-72
2023/04/09 03:06:07;;;;;;;5.85;1.38;;;;;;;;;;4932270;28;20027;-73
2023/04/09 03:08:34;;;;;;;5.50;1.13;;;;;;;;;;4931495;28;20031;-72
2023/04/09 03:11:00;;;;;;;5.82;1.30;;;;;;;;;;4914490;28;20433;-72
2023/04/09 03:13:27;;;;;;;5.20;1.17;;;;;;;;;;4934939;28;20027;-72
2023/04/09 03:15:53;;;;;;;5.93;1.20;;;;;;;;;;4928933;28;20485;-72
2023/04/09 03:18:20;;;;;;;5.00;1.25;;;;;;;;;;4934502;28;20102;-71
2023/04/09 03:20:45;;;;;;;;;;;;;;;;;;4935123;28;20042;-71
2023/04/09 03:23:12;;;;;;;10.45;2.47;;;;;;;;;;4928074;28;19915;-73
2023/04/09 03:25:38;;;;;;;;;;;;;;;;;;4934280;28;20674;-71
2023/04/09 03:28:04;;;;;;;8.27;2.03;;;;;;;;;;4927823;28;20322;-71
2023/04/09 03:30:30;;;;;;;6.18;1.77;;;;;;;;;;4938566;28;20054;-72
2023/04/09 03:32:58;;;;;;;6.60;1.77;;;;;;;;;;4941878;28;20031;-72
2023/04/09 03:35:24;;;;;;;7.07;1.98;;;;;;;;;;4945541;28;20367;-72
2023/04/09 03:37:50;;;;;;;;;;;;;;;;;;4926113;28;20043;-72
2023/04/09 03:40:16;;;;;;;4.97;1.40;;;;;;;;;;4945771;28;20258;-71
2023/04/09 03:42:45;;;;;;;5.47;1.48;;;;;;;;;;4943569;28;20330;-72
2023/04/09 03:45:12;;;;;;;7.60;1.70;;;;;;;;;;4941422;28;20039;-72
2023/04/09 03:47:38;;;;;;;6.80;1.50;;;;;;;;;;4928539;28;20451;-72
2023/04/09 03:50:04;;;;;;;5.22;1.10;;;;;;;;;;4942526;28;20697;-71
2023/04/09 03:52:30;;;;;;;;;;;;;;;;;;4949515;28;20035;-71
2023/04/09 03:54:56;;;;;;;6.72;1.40;;;;;;;;;;4945194;28;20001;-71
2023/04/09 03:57:22;;;;;;;9.07;2.50;;;;;;;;;;4945661;28;20030;-72
2023/04/09 03:59:48;;;;;;;7.90;2.47;;;;;;;;;;4944804;28;20070;-71
2023/04/09 04:02:15;;;;;;;10.65;2.63;;;;;;;;;;4941580;28;20826;-71
2023/04/09 04:04:41;;;;;;;10.15;3.35;;;;;;;;;;4946087;28;20059;-71
2023/04/09 04:07:07;;;;;;;8.48;3.13;;;;;;;;;;4942828;28;20461;-71
2023/04/09 04:09:33;;;;;;;;;;;;;;;;;;4948123;28;20367;-72
2023/04/09 04:12:00;;;;;;;7.53;2.17;;;;;;;;;;4943857;28;19925;-72
2023/04/09 04:14:27;;;;;;;6.70;2.00;;;;;;;;;;4942013;28;20035;-73
2023/04/09 04:16:53;;;;;;;8.82;2.75;;;;;;;;;;4942564;28;20113;-73
2023/04/09 04:19:19;;;;;;;7.80;2.65;;;;;;;;;;4931675;28;20539;-73
2023/04/09 04:21:45;;;;;;;7.78;2.55;;;;;;;;;;4944159;28;20271;-71
2023/04/09 04:24:11;;;;;;;6.65;2.08;;;;;;;;;;4937786;28;20053;-73
2023/04/09 04:26:39;;;;;;;9.05;2.25;;;;;;;;;;4942764;28;20042;-73
2023/04/09 04:29:06;;;;;;;6.22;1.88;;;;;;;;;;4938552;28;20073;-72
2023/04/09 04:31:32;;;;;;;7.80;1.85;;;;;;;;;;4945653;28;20173;-72
2023/04/09 04:33:58;;;;;;;6.20;1.88;;;;;;;;;;4944276;28;20647;-72
2023/04/09 04:36:25;;;;;;;7.15;1.83;;;;;;;;;;4946026;28;20746;-73
2023/04/09 04:38:51;;;;;;;6.05;1.70;;;;;;;;;;4928250;28;20137;-73
2023/04/09 04:41:17;;;;;;;8.23;1.77;;;;;;;;;;4946795;28;20109;-72
2023/04/09 04:43:43;;;;;;;8.43;1.83;;;;;;;;;;4927761;28;20041;-72
2023/04/09 04:46:09;;;;;;;6.25;1.65;;;;;;;;;;4941854;28;20407;-73
2023/04/09 04:48:35;;;;;;;5.43;1.40;;;;;;;;;;4946543;28;20313;-72
2023/04/09 04:51:02;;;;;;;6.90;1.63;;;;;;;;;;4941214;28;20042;-73
2023/04/09 04:53:28;;;;;;;5.93;1.52;;;;;;;;;;4938724;28;20407;-73
2023/04/09 04:55:54;;;;;;;6.03;1.50;;;;;;;;;;4941950;28;20109;-73
2023/04/09 04:58:20;;;;;;;6.18;1.50;;;;;;;;;;4926523;28;20038;-73
2023/04/09 05:00:46;;;;;;;6.55;1.60;;;;;;;;;;4928893;28;20753;-72
2023/04/09 05:03:13;;;;;;;6.10;1.50;;;;;;;;;;4925825;28;20267;-73
2023/04/09 05:05:39;;;;;;;7.80;1.38;;;;;;;;;;4931908;28;20082;-73
2023/04/09 05:08:06;;;;;;;6.00;1.60;;;;;;;;;;4939489;28;20101;-73
2023/04/09 05:10:32;;;;;;;5.65;1.55;;;;;;;;;;4944485;28;20030;-72
2023/04/09 05:12:58;;;;;;;4.43;1.40;;;;;;;;;;4943198;28;20488;-73
2023/04/09 05:18:00;;;;;;;4.90;1.08;;;;;;;;;;4942243;28;20050;-73
2023/04/09 05:20:27;;;;;;;14.20;4.25;;;;;;;;;;4947273;28;20031;-73
2023/04/09 05:22:53;;;;;;;11.13;3.70;;;;;;;;;;4939494;28;20089;-73
2023/04/09 05:25:19;;;;;;;8.48;2.67;;;;;;;;;;4930255;28;21304;-73
2023/04/09 05:27:45;;;;;;;8.63;2.17;;;;;;;;;;4929638;28;20318;-73
2023/04/09 05:30:12;;;;;;;7.75;1.92;;;;;;;;;;4939746;28;20464;-73
2023/04/09 05:32:38;;;;;;;15.05;3.63;;;;;;;;;;4947202;28;20065;-73
2023/04/09 05:35:04;;;;;;;10.23;2.58;;;;;;;;;;4943219;28;20342;-71
2023/04/09 05:37:30;;;;;;;8.98;2.50;;;;;;;;;;4942029;28;20027;-72
2023/04/09 05:39:57;;;;;;;7.00;2.08;;;;;;;;;;4938677;28;20193;-72
2023/04/09 05:42:23;;;;;;;8.43;2.03;;;;;;;;;;4946663;28;20034;-73
2023/04/09 05:44:49;;;;;;;11.95;3.15;;;;;;;;;;4934016;28;20104;-72
2023/04/09 05:47:16;;;;;;;10.32;3.45;;;;;;;;;;4958233;28;20035;-72
2023/04/09 05:49:42;;;;;;;9.20;2.95;;;;;;;;;;4946320;28;20200;-72
2023/04/09 05:52:08;;;;;;;9.15;3.10;;;;;;;;;;4955478;28;20580;-72
2023/04/09 05:54:35;;;;;;;11.40;3.40;;;;;;;;;;4946020;28;20512;-72
2023/04/09 05:57:01;;;;;;;11.98;3.28;;;;;;;;;;4954272;28;20542;-72
2023/04/09 05:59:27;;;;;;;8.68;2.75;;;;;;;;;;4961499;28;20026;-73
2023/04/09 06:01:53;;;;;;;;;;;;;;;;;;4958899;28;20428;-72
2023/04/09 06:04:19;;;;;;;10.18;3.30;;;;;;;;;;4941127;28;19925;-72
2023/04/09 06:06:46;;;;;;;;;;;;;;;;;;4959264;28;20875;-72
2023/04/09 06:09:12;;;;;;;8.77;2.60;;;;;;;;;;4960754;28;20295;-72
2023/04/09 06:11:38;;;;;;;;;;;;;;;;;;4966149;28;20042;-72
2023/04/09 06:14:04;;;;;;;7.82;2.08;;;;;;;;;;4962389;28;20394;-73
2023/04/09 06:16:30;;;;;;;7.75;2.00;;;;;;;;;;4962016;28;20061;-73
2023/04/09 06:18:56;;;;;;;6.55;1.80;;;;;;;;;;4959819;28;20156;-72
2023/04/09 06:21:22;;;;;;;9.10;2.60;;;;;;;;;;4961632;28;20097;-75
2023/04/09 06:23:48;;;;;;;6.85;2.03;;;;;;;;;;4960626;28;20444;-72
2023/04/09 06:26:15;;;;;;;8.52;2.03;;;;;;;;;;4940598;28;20038;-71
2023/04/09 06:28:42;;;;;;;;;;;;;;;;;;4960067;28;20650;-72
2023/04/09 06:31:08;;;;;;;7.65;2.28;;;;;;;;;;4938058;28;19941;-72
2023/04/09 06:33:34;;;;;;;7.88;2.90;;;;;;;;;;4960733;28;20420;-73
2023/04/09 06:36:00;;;;;;;9.52;3.80;;;;;;;;;;4956715;28;20041;-73
2023/04/09 06:38:26;;;;;;;9.43;3.55;;;;;;;;;;4957593;28;20480;-72
2023/04/09 06:40:52;;;;;;;9.00;3.38;;;;;;;;;;4958537;28;20030;-73
2023/04/09 06:43:19;;;;;;;7.65;2.65;;;;;;;;;;4958810;28;20591;-72
2023/04/09 06:45:45;;;;;;;;;;;;;;;;;;4959991;28;20081;-73
2023/04/09 06:48:11;;;;;;;8.25;2.78;;;;;;;;;;4963199;28;20036;-73
2023/04/09 06:50:37;;;;;;;;;;;;;;;;;;4961880;28;20065;-73
2023/04/09 06:53:06;;;;;;;7.20;2.05;;;;;;;;;;4955557;28;20004;-73
2023/04/09 06:55:32;;;;;;;7.03;1.73;;;;;;;;;;4961638;28;20443;-73
2023/04/09 06:57:58;;;;;;;8.68;1.75;;;;;;;;;;4957113;28;20486;-73
2023/04/09 07:00:25;;;;;;;;;;;;;;;;;;4960766;28;20034;-74
2023/04/09 07:02:52;;;;;;;5.93;1.50;;;;;;;;;;4956937;28;20028;-73
2023/04/09 07:05:18;;;;;;;6.75;1.65;;;;;;;;;;4960982;28;20034;-72
2023/04/09 07:07:44;;;;;;;6.70;1.40;;;;;;;;;;4962301;28;20369;-74
2023/04/09 07:10:10;;;;;;;;;;;;;;;;;;4961101;28;20134;-73
2023/04/09 07:12:36;;;;;;;7.20;1.50;;;;;;;;;;4963613;28;20018;-72
2023/04/09 07:15:02;;;;;;;;;;;;;;;;;;4957460;28;20108;-72
2023/04/09 07:17:29;;;;;;;5.38;1.27;;;;;;;;;;4963281;28;20372;-73
2023/04/09 07:19:55;;;;;;;6.32;1.60;;;;;;;;;;4943017;28;20555;-72
2023/04/09 07:22:25;;;;;;;;;;;;;;;;;;4948227;28;20520;-72
2023/04/09 07:24:54;;;;;;;8.38;1.80;;;;;;;;;;4958312;28;19918;-72
2023/04/09 07:27:24;;;;;;;6.85;1.38;;;;;;;;;;4960987;28;20041;-72
2023/04/09 07:29:51;;;;;;;8.50;1.70;;;;;;;;;;4953902;28;20045;-73
2023/04/09 07:32:17;;;;;;;;;;;;;;;;;;4961919;28;20045;-73
2023/04/09 07:34:43;;;;;;;5.80;1.20;;;;;;;;;;4956505;28;20315;-72
2023/04/09 07:37:10;;;;;;;6.85;1.58;;;;;;;;;;4959400;28;20041;-72
2023/04/09 07:39:36;;;;;;;7.45;1.67;;;;;;;;;;4945337;28;20034;-73
2023/04/09 07:42:03;;;;;;;;;;;;;;;;;;4963643;28;20404;-72
2023/04/09 07:44:29;;;;;;;10.38;1.80;;;;;;;;;;4958877;28;19914;-73
2023/04/09 07:46:55;;;;;;;;;;;;;;;;;;4960606;28;20137;-73
2023/04/09 07:49:21;;;;;;;9.65;2.15;;;;;;;;;;4962496;28;20169;-72
2023/04/09 07:51:47;;;;;;;8.18;1.70;;;;;;;;;;4948337;28;20502;-72
2023/04/09 07:54:14;;;;;;;8.63;1.75;;;;;;;;;;4964726;28;20078;-72
2023/04/09 07:56:40;;;;;;;;;;;;;;;;;;4963897;28;20589;-72
2023/04/09 07:59:06;;;;;;;8.07;1.90;;;;;;;;;;4942190;28;20338;-72
2023/04/09 08:01:32;;;;;;;;;;;;;;;;;;4947250;28;20294;-72
2023/04/09 08:03:58;;;;;;;6.95;1.40;;;;;;;;;;4941812;28;20064;-72
2023/04/09 08:06:25;;;;;;;;;;;;;;;;;;4963328;28;20030;-72
2023/04/09 08:08:52;;;;;;;6.97;1.48;;;;;;;;;;4943075;28;19957;-73
2023/04/09 08:11:23;;;;;;;7.93;1.90;;;;;;;;;;4961497;28;20026;-73
2023/04/09 08:13:50;;;;;;;9.93;1.98;;;;;;;;;;4962639;28;20347;-72
2023/04/09 08:16:17;;;;;;;10.75;1.98;;;;;;;;;;4942378;28;20500;-72
2023/04/09 08:18:43;;;;;;;6.15;1.50;;;;;;;;;;4957511;28;20535;-72
2023/04/09 08:21:09;;;;;;;;;;;;;;;;;;4955604;28;20507;-72
2023/04/09 08:23:36;;;;;;;7.90;1.77;;;;;;;;;;4960373;28;20542;-75
2023/04/09 08:26:02;;;;;;;9.02;1.98;;;;;;;;;;4959663;28;20034;-72
2023/04/09 08:28:29;;;;;;;12.85;2.20;;;;;;;;;;4944767;28;20109;-73
2023/04/09 08:30:55;;;;;;;7.80;1.70;;;;;;;;;;4937658;28;20062;-73
2023/04/09 08:33:21;;;;;;;10.07;2.92;;;;;;;;;;4945541;28;20529;-72
2023/04/09 08:35:47;;;;;;;8.98;2.35;;;;;;;;;;4963158;28;20045;-71
2023/04/09 08:38:14;;;;;;;;;;;;;;;;;;4958501;28;20031;-72
2023/04/09 08:40:40;;;;;;;8.52;1.90;;;;;;;;;;4963283;28;20258;-72
2023/04/09 08:43:07;;;;;;;10.07;2.67;;;;;;;;;;4941618;28;20033;-71
2023/04/09 08:45:34;;;;;;;9.20;2.88;;;;;;;;;;4954198;28;20423;-72
2023/04/09 08:48:02;;;;;;;6.40;1.88;;;;;;;;;;4960502;28;20042;-71
2023/04/09 08:50:35;;;;;;;9.15;2.83;;;;;;;;;;4959503;28;20062;-72
2023/04/09 08:53:05;;;;;;;8.27;2.40;;;;;;;;;;4954171;28;20145;-73
2023/04/09 08:55:33;;;;;;;8.48;2.22;;;;;;;;;;4944333;28;20545;-73
2023/04/09 08:57:59;;;;;;;8.48;2.53;;;;;;;;;;4955381;28;20023;-73
2023/04/09 09:00:26;;;;;;;8.68;2.80;;;;;;;;;;4958561;28;20081;-73
2023/04/09 09:03:08;;;;;;;8.82;2.80;;;;;;;;;;4939254;28;20479;-72
2023/04/09 09:05:38;;;;;;;9.15;2.97;;;;;;;;;;4959689;28;20555;-73
2023/04/09 09:08:06;;;;;;;8.55;2.63;;;;;;;;;;4938795;28;20045;-72
2023/04/09 09:10:42;;;;;;;8.82;2.40;;;;;;;;;;4961406;28;20026;-72
2023/04/09 09:13:08;;;;;;;;;;;;;;;;;;4954470;28;20834;-72
2023/04/09 09:15:34;;;;;;;6.93;1.88;;;;;;;;;;4956887;28;20157;-72
2023/04/09 09:18:01;;;;;;;10.18;2.33;;;;;;;;;;4959388;28;20053;-72
2023/04/09 09:20:27;;;;;;;11.50;2.00;;;;;;;;;;4958681;28;20034;-72
2023/04/09 09:22:55;;;;;;;8.00;2.00;;;;;;;;;;4955256;28;20039;-72
2023/04/09 09:25:24;;;;;;;6.28;1.80;;;;;;;;;;4960771;28;20034;-72
2023/04/09 09:27:51;;;;;;;7.32;1.63;;;;;;;;;;4958756;28;20085;-72
2023/04/09 09:30:24;;;;;;;6.35;1.58;;;;;;;;;;4958129;28;20045;-72
2023/04/09 09:33:17;;;;;;;5.88;1.80;;;;;;;;;;4958338;28;20045;-72
2023/04/09 09:35:48;;;;;;;6.82;1.60;;;;;;;;;;4939266;28;20595;-74
2023/04/09 09:38:15;;;;;;;8.80;2.20;;;;;;;;;;4952005;28;20023;-73
2023/04/09 09:40:41;;;;;;;9.07;1.50;;;;;;;;;;4957385;28;20340;-72
2023/04/09 09:43:07;;;;;;;8.27;1.90;;;;;;;;;;4938315;28;20879;-73
2023/04/09 09:45:33;;;;;;;6.38;1.70;;;;;;;;;;4956521;28;20026;-72
2023/04/09 09:48:00;;;;;;;8.52;1.90;;;;;;;;;;4957745;28;20097;-71
2023/04/09 09:50:28;;;;;;;7.75;2.05;;;;;;;;;;4942485;28;20390;-71
2023/04/09 09:52:58;;;;;;;9.20;2.05;;;;;;;;;;4938105;28;20022;-71
2023/04/09 09:55:25;;;;;;;6.55;1.98;;;;;;;;;;4959199;28;20030;-73
2023/04/09 09:57:52;;;;;;;8.68;2.20;;;;;;;;;;4954422;28;20035;-72
2023/04/09 10:00:24;;;;;;;8.05;2.08;;;;;;;;;;4961957;28;20435;-72
2023/04/09 10:02:58;;;;;;;7.30;2.00;;;;;;;;;;4945148;28;20699;-72
2023/04/09 10:05:26;;;;;;;7.53;1.83;;;;;;;;;;4960438;28;20110;-73
2023/04/09 10:07:54;;;;;;;8.40;2.08;;;;;;;;;;4939267;28;20388;-71
2023/04/09 10:10:21;;;;;;;7.65;1.73;;;;;;;;;;4958261;28;20034;-73
2023/04/09 10:12:47;;;;;;;8.18;1.80;;;;;;;;;;4957346;28;20169;-73
2023/04/09 10:15:14;;;;;;;6.68;1.70;;;;;;;;;;4953434;28;20139;-71
2023/04/09 10:17:40;;;;;;;5.75;1.45;;;;;;;;;;4957610;28;20430;-73
2023/04/09 10:20:13;;;;;;;5.70;1.45;;;;;;;;;;4957309;28;20101;-73
2023/04/09 10:22:39;;;;;;;6.25;1.60;;;;;;;;;;4957009;28;20331;-71
2023/04/09 10:25:06;;;;;;;6.53;1.95;;;;;;;;;;4956441;28;20581;-71
2023/04/09 10:27:33;;;;;;;5.88;1.67;;;;;;;;;;4954310;28;20035;-73
2023/04/09 10:29:59;;;;;;;6.35;1.70;;;;;;;;;;4938583;28;20035;-71
2023/04/09 10:32:27;;;;;;;6.85;1.90;;;;;;;;;;4957080;28;20350;-71
2023/04/09 10:34:56;;;;;;;5.75;1.48;;;;;;;;;;4952657;28;20626;-73
2023/04/09 10:37:24;;;;;;;5.35;1.40;;;;;;;;;;4957282;28;20038;-71
2023/04/09 10:39:51;;;;;;;6.03;1.17;;;;;;;;;;4957887;28;20385;-73
2023/04/09 10:42:26;;;;;;;3.97;1.25;;;;;;;;;;4943074;28;21244;-72
2023/04/09 10:45:05;;;;;;;4.38;1.20;;;;;;;;;;4956223;28;20093;-71
2023/04/09 10:47:32;;;;;;;6.07;1.40;;;;;;;;;;4959050;28;20137;-71
2023/04/09 10:50:13;;;;;;;4.80;1.20;;;;;;;;;;4956728;28;20178;-72
2023/04/09 10:52:43;;;;;;;7.70;1.40;;;;;;;;;;4959051;28;20026;-71
2023/04/09 10:55:10;;;;;;;5.55;1.35;;;;;;;;;;4948314;28;20707;-72
2023/04/09 10:57:36;;;;;;;4.35;1.20;;;;;;;;;;4959536;28;20331;-71
2023/04/09 11:00:02;;;;;;;6.85;1.48;;;;;;;;;;4951196;28;20034;-71
2023/04/09 11:02:31;;;;;;;4.95;1.23;;;;;;;;;;4958129;28;20121;-72
2023/04/09 11:05:01;;;;;;;8.57;1.67;;;;;;;;;;4938556;28;20478;-70
2023/04/09 11:07:27;;;;;;;6.30;1.60;;;;;;;;;;4946200;28;20372;-74
2023/04/09 11:09:53;;;;;;;7.10;1.85;;;;;;;;;;4953636;28;20091;-72
2023/04/09 11:12:19;;;;;;;4.93;1.40;;;;;;;;;;4944257;28;20025;-72
2023/04/09 11:14:45;;;;;;;6.47;1.60;;;;;;;;;;4958117;28;20030;-73
2023/04/09 11:17:12;;;;;;;7.45;1.85;;;;;;;;;;4961293;28;20050;-72
2023/04/09 11:19:39;;;;;;;9.98;2.20;;;;;;;;;;4943255;28;20369;-71
2023/04/09 11:22:05;;;;;;;7.93;2.13;;;;;;;;;;4955538;28;20594;-73
2023/04/09 11:24:45;;;;;;;10.00;2.22;;;;;;;;;;4962663;28;20288;-71
2023/04/09 11:27:12;;;;;;;8.77;2.40;;;;;;;;;;4937495;28;20119;-72
2023/04/09 11:29:38;;;;;;;8.07;2.75;;;;;;;;;;4945057;28;20042;-71
2023/04/09 11:32:05;;;;;;;8.68;2.90;;;;;;;;;;4956098;28;20058;-72
2023/04/09 11:34:32;;;;;;;7.72;2.63;;;;;;;;;;4947055;28;20042;-71
2023/04/09 11:36:58;;;;;;;7.88;2.20;;;;;;;;;;4956827;28;20126;-71
2023/04/09 11:39:28;;;;;;;9.93;2.85;;;;;;;;;;4948546;28;20035;-72
2023/04/09 11:41:54;;;;;;;7.60;1.95;;;;;;;;;;4958104;28;20389;-72
2023/04/09 11:44:21;;;;;;;9.68;2.38;;;;;;;;;;4961312;28;20039;-72
2023/04/09 11:46:49;;;;;;;9.63;2.47;;;;;;;;;;4961877;28;20041;-72
2023/04/09 11:49:15;;;;;;;9.45;3.05;;;;;;;;;;4956983;28;20790;-73
2023/04/09 11:51:42;;;;;;;8.23;2.78;;;;;;;;;;4939215;28;20957;-72
2023/04/09 11:54:08;;;;;;;6.95;2.25;;;;;;;;;;4956366;28;20117;-70
2023/04/09 11:56:37;;;;;;;6.35;1.90;;;;;;;;;;4965259;28;20485;-72
2023/04/09 11:59:11;;;;;;;6.82;1.80;;;;;;;;;;4962083;28;20030;-72
2023/04/09 12:01:38;;;;;;;6.60;1.52;;;;;;;;;;4945396;28;20030;-71
2023/04/09 12:04:05;;;;;;;5.63;1.30;;;;;;;;;;4957200;28;20035;-72
2023/04/09 12:06:31;;;;;;;6.57;1.48;;;;;;;;;;4943964;28;20027;-71
2023/04/09 12:08:58;;;;;;;9.20;1.63;;;;;;;;;;4961317;28;20057;-71
2023/04/09 12:11:28;;;;;;;6.93;1.40;;;;;;;;;;4960397;28;20034;-72
2023/04/09 12:14:04;;;;;;;6.70;1.33;;;;;;;;;;4959612;28;20034;-70
2023/04/09 12:16:31;;;;;;;6.55;1.38;;;;;;;;;;4956485;28;20512;-71
2023/04/09 12:19:07;;;;;;;5.88;1.38;;;;;;;;;;4957664;28;20038;-71
2023/04/09 12:21:33;;;;;;;;;;;;;;;;;;4954189;28;20030;-72
2023/04/09 12:23:59;;;;;;;5.93;1.60;;;;;;;;;;4943340;28;19949;-71
2023/04/09 12:26:25;;;;;;;5.95;1.50;;;;;;;;;;4958956;28;20030;-70
2023/04/09 12:28:51;;;;;;;5.45;1.73;;;;;;;;;;4954937;28;20141;-72
2023/04/09 12:31:18;;;;;;;7.93;1.25;;;;;;;;;;4961888;28;20030;-72
2023/04/09 12:33:47;;;;;;;8.10;1.40;;;;;;;;;;4961804;28;20042;-72
2023/04/09 12:36:15;;;;;;;5.63;1.40;;;;;;;;;;4962128;28;20515;-71
2023/04/09 12:38:44;;;;;;;6.18;1.33;;;;;;;;;;4961990;28;20059;-71
2023/04/09 12:41:12;;;;;;;6.18;1.17;;;;;;;;;;4921323;28;22181;-72
2023/04/09 12:43:39;;;;;;;6.82;1.42;;;;;;;;;;4921078;28;20035;-72
2023/04/09 12:46:09;;;;;;;6.00;1.20;;;;;;;;;;4892387;28;20302;-71
2023/04/09 12:48:37;;;;;;;7.38;1.35;;;;;;;;;;4927789;28;20155;-71
2023/04/09 12:51:05;;;;;;;7.32;1.38;;;;;;;;;;4921985;28;20594;-71
2023/04/09 12:53:31;;;;;;;5.10;1.20;;;;;;;;;;4926136;28;20946;-71
2023/04/09 12:56:00;;;;;;;5.97;1.48;;;;;;;;;;4921542;28;20038;-71
2023/04/09 12:58:27;;;;;;;7.43;1.30;;;;;;;;;;4925867;28;20118;-71
2023/04/09 13:00:56;;;;;;;7.07;1.40;;;;;;;;;;4922131;28;20082;-71
2023/04/09 13:03:24;;;;;;;7.63;1.35;;;;;;;;;;4925212;28;20133;-71
2023/04/09 13:05:51;;;;;;;5.50;1.20;;;;;;;;;;4925991;28;20126;-72
2023/04/09 13:08:19;;;;;;;7.30;1.75;;;;;;;;;;4926068;28;20573;-72
2023/04/09 13:10:47;;;;;;;8.68;2.20;;;;;;;;;;4924326;28;20676;-71
2023/04/09 13:13:15;;;;;;;5.57;1.20;;;;;;;;;;4918760;28;20046;-71
2023/04/09 13:15:45;;;;;;;3.97;1.05;;;;;;;;;;4923816;28;20067;-72
2023/04/09 13:18:13;;;;;;;5.60;1.10;;;;;;;;;;4920776;28;20067;-71
2023/04/09 13:20:40;;;;;;;5.20;1.00;;;;;;;;;;4924801;28;20537;-71
2023/04/09 13:23:07;;;;;;;5.28;1.05;;;;;;;;;;4921257;28;20047;-70
2023/04/09 13:25:34;;;;;;;5.47;1.33;;;;;;;;;;4923062;28;20599;-71
2023/04/09 13:28:01;;;;;;;5.90;1.30;;;;;;;;;;4921115;28;20035;-71
2023/04/09 13:30:28;;;;;;;6.15;1.10;;;;;;;;;;4927430;28;20039;-72
2023/04/09 13:32:56;;;;;;;5.05;1.00;;;;;;;;;;4944617;28;20046;-70
2023/04/09 13:35:24;;;;;;;3.58;0.90;;;;;;;;;;4960323;28;20506;-71
2023/04/09 13:37:52;;;;;;;5.43;1.23;;;;;;;;;;4938074;28;20034;-72
2023/04/09 13:40:21;;;;;;;5.65;1.02;;;;;;;;;;4959830;28;20037;-71
2023/04/09 13:42:48;;;;;;;3.42;1.00;;;;;;;;;;4959832;28;20482;-72
2023/04/09 13:45:14;;;;;;;6.15;0.93;;;;;;;;;;4955252;28;20026;-73
2023/04/09 13:47:41;;;;;;;3.78;1.00;;;;;;;;;;4959345;28;20547;-72
2023/04/09 13:50:12;;;;;;;5.95;1.30;;;;;;;;;;4950305;28;20085;-72
2023/04/09 13:52:41;;;;;;;4.93;1.00;;;;;;;;;;4953579;28;20464;-72
2023/04/09 13:55:09;;;;;;;5.30;1.20;;;;;;;;;;4940040;28;20045;-73
2023/04/09 13:57:36;;;;;;;4.43;1.00;;;;;;;;;;4955856;28;20289;-72
2023/04/09 14:00:05;;;;;;;4.88;1.17;;;;;;;;;;4935580;28;20026;-72
2023/04/09 14:02:32;;;;;;;5.22;1.00;;;;;;;;;;4960706;28;20038;-72
2023/04/09 14:04:59;;;;;;;4.45;0.82;;;;;;;;;;4953336;28;20070;-72
2023/04/09 14:07:28;;;;;;;5.10;1.00;;;;;;;;;;4956967;28;20038;-72
2023/04/09 14:09:54;;;;;;;4.75;1.10;;;;;;;;;;4958045;28;20538;-73
2023/04/09 14:12:22;;;;;;;3.67;0.95;;;;;;;;;;4944586;28;20026;-71
2023/04/09 14:14:50;;;;;;;5.40;1.30;;;;;;;;;;4943408;28;20030;-72
2023/04/09 14:17:19;;;;;;;4.03;1.08;;;;;;;;;;4958760;28;20607;-72
2023/04/09 14:19:47;;;;;;;4.25;0.90;;;;;;;;;;4959302;28;20112;-73
2023/04/09 14:22:15;;;;;;;5.40;1.30;;;;;;;;;;4956490;28;20074;-72
2023/04/09 14:24:42;;;;;;;5.45;0.93;;;;;;;;;;4943530;28;20372;-73
2023/04/09 14:27:09;;;;;;;4.97;0.95;;;;;;;;;;4955311;28;20630;-74
2023/04/09 14:29:36;;;;;;;5.15;1.17;;;;;;;;;;4936552;28;20336;-72
2023/04/09 14:32:03;;;;;;;4.60;1.10;;;;;;;;;;4952440;28;20116;-71
2023/04/09 14:34:30;;;;;;;4.55;1.17;;;;;;;;;;4953870;28;20035;-72
2023/04/09 14:36:58;;;;;;;5.43;1.23;;;;;;;;;;4952846;28;20543;-73
2023/04/09 14:39:26;;;;;;;6.53;1.30;;;;;;;;;;4958293;28;20031;-73
2023/04/09 14:41:53;;;;;;;4.30;1.02;;;;;;;;;;4955133;28;20538;-72
2023/04/09 14:44:24;;;;;;;5.28;0.93;;;;;;;;;;4954536;28;20755;-72
2023/04/09 14:46:53;;;;;;;4.28;1.00;;;;;;;;;;4958979;28;20093;-73
2023/04/09 14:49:21;;;;;;;5.70;1.30;;;;;;;;;;4950311;28;20148;-71
2023/04/09 14:51:50;;;;;;;3.10;0.90;;;;;;;;;;4959796;28;20060;-73
2023/04/09 14:54:17;;;;;;;3.55;0.90;;;;;;;;;;4943357;28;20547;-73
2023/04/09 14:56:44;;;;;;;3.08;0.70;;;;;;;;;;4963990;28;20034;-72